createdAt,value
2018-10-19T00:21:09.292Z,1.1
2018-10-19T00:33:48.018Z,1.1
2018-10-19T00:45:28.887Z,2.1
2018-10-19T00:57:11.351Z,1.6
2018-10-19T01:08:38.101Z,2.7
2018-10-19T01:20:52.839Z,2.2
2018-10-19T01:33:23.626Z,2.1
2018-10-19T01:45:05.586Z,3.2
2018-10-19T01:57:19.462Z,2.3
2018-10-19T02:08:49.164Z,1.8
2018-10-19T02:19:03.311Z,2.1
2018-10-19T02:29:18.092Z,1.1
2018-10-19T02:39:31.861Z,1.3
2018-10-19T02:51:15.678Z,5.1
2018-10-19T03:03:26.447Z,4.8
2018-10-19T03:14:51.620Z,5.2
2018-10-19T03:26:39.537Z,7.6
2018-10-19T03:50:08.820Z,7.8
2018-10-19T04:02:11.468Z,7.5
2018-10-19T04:14:20.750Z,4.8
2018-10-19T04:26:03.719Z,5.1
2018-10-19T04:39:51.650Z,5.8
2018-10-19T04:50:03.468Z,4.8
2018-10-19T05:00:17.831Z,7.1
2018-10-19T05:11:03.238Z,6.1
2018-10-19T05:33:11.609Z,3.9
2018-10-19T05:44:47.264Z,4.1
2018-10-19T05:56:08.296Z,6.2
2018-10-19T06:18:33.268Z,4.3
2018-10-19T06:30:37.203Z,5.9
2018-10-19T06:41:17.471Z,4.8
2018-10-19T06:52:35.740Z,7.8
2018-10-19T07:03:05.462Z,5.1
2018-10-19T07:14:08.298Z,6.7
2018-10-19T07:25:20.271Z,11.2
2018-10-19T07:36:08.019Z,9.5
2018-10-19T07:46:39.386Z,13.4
2018-10-19T07:56:53.814Z,6.4
2018-10-19T08:07:07.934Z,3.8
2018-10-19T08:17:23.476Z,4.1
2018-10-19T08:27:37.116Z,4.0
2018-10-19T08:50:19.173Z,2.5
2018-10-19T09:01:50.536Z,2.2
2018-10-19T09:13:39.502Z,3.4
2018-10-19T09:25:50.038Z,3.4
2018-10-19T09:38:01.651Z,3.5
2018-10-19T10:00:25.988Z,3.9
2018-10-19T10:12:36.265Z,3.1
2018-10-19T10:25:14.763Z,2.6
2018-10-19T10:36:45.802Z,3.7
2018-10-19T10:47:20.079Z,2.2
2018-10-19T10:58:41.465Z,2.1
2018-10-19T11:08:55.480Z,2.5
2018-10-19T11:20:54.841Z,2.5
2018-10-19T11:43:25.159Z,3.1
2018-10-19T11:55:14.209Z,2.1
2018-10-19T12:24:06.921Z,2.3
2018-10-19T12:35:12.412Z,2.8
2018-10-19T12:46:55.372Z,2.0
2018-10-19T12:58:54.105Z,2.5
2018-10-19T13:10:27.102Z,3.2
2018-10-19T13:21:41.712Z,2.7
2018-10-19T13:33:04.196Z,3.1
2018-10-19T13:45:12.196Z,3.2
2018-10-19T13:56:58.804Z,2.5
2018-10-19T14:08:37.450Z,2.4
2018-10-19T14:20:43.146Z,2.9
2018-10-19T14:31:55.421Z,2.1
2018-10-19T14:44:52.153Z,3.4
2018-10-19T14:55:37.807Z,2.5
2018-10-19T15:06:03.708Z,1.2
2018-10-19T15:16:53.311Z,1.5
2018-10-19T15:27:08.097Z,2.1
2018-10-19T15:47:56.167Z,1.6
2018-10-19T15:58:11.504Z,2.7
2018-10-19T16:19:25.333Z,2.4
2018-10-19T16:30:22.763Z,2.9
2018-10-19T16:40:40.101Z,2.7
2018-10-19T17:04:20.868Z,4.2
2018-10-19T17:15:08.915Z,5.5
2018-10-19T17:25:55.175Z,4.2
2018-10-19T17:36:15.821Z,2.5
2018-10-19T17:46:35.474Z,2.6
2018-10-19T17:56:49.797Z,1.9
2018-10-19T18:07:40.460Z,4.8
2018-10-19T18:18:31.498Z,5.1
2018-10-19T18:57:48.537Z,6.3
2018-10-19T19:08:39.134Z,4.3
2018-10-19T19:19:30.691Z,3.1
2018-10-19T19:45:08.202Z,4.6
2018-10-19T19:55:24.129Z,4.4
2018-10-19T20:06:13.682Z,4.2
2018-10-19T20:16:28.749Z,2.8
2018-10-19T20:26:43.933Z,3.0
2018-10-19T20:37:37.442Z,3.8
2018-10-19T20:48:33.630Z,4.3
2018-10-19T20:59:20.462Z,2.7
2018-10-19T21:09:36.644Z,2.2
2018-10-19T21:19:53.001Z,3.3
2018-10-19T21:31:12.873Z,3.9
2018-10-19T21:42:33.739Z,7.0
2018-10-19T21:53:21.957Z,3.5
2018-10-19T22:04:09.494Z,4.1
2018-10-19T22:14:25.685Z,2.8
2018-10-19T22:24:41.561Z,2.6
2018-10-19T22:45:52.033Z,2.9
2018-10-19T22:56:53.578Z,8.6
2018-10-19T23:07:10.820Z,3.2
2018-10-19T23:17:26.726Z,3.5
2018-10-19T23:27:44.253Z,3.9
2018-10-19T23:38:49.434Z,5.6
2018-10-19T23:49:05.871Z,3.3
2018-10-19T23:59:22.440Z,2.5
